Arnett, Oklahoma
Current Conditions -  °F | °C
As of 11:53 PM on Saturday 20 Dec 2014 (Local Time) from KGAG Reporting Station
Haze Haze  
Wind Chill: 33°   Ceiling: 600
Heat Index: 41°   Visibility: 6mi
Dew Point: 39°   Wind: 16mph
Humidity: 93%   Direction: 180°S
Pressure: 30.03"   Gusts: 26mph
Location:  36.14°N, 99.77°W
Report Text: KGAG 210553Z AUTO 18014G23KT 6SM BR OVC006 05/04 A3003 RMK AO2 SLP170 T00500039 10056 20028 401110028 56004
Loading
Personal Weather Stations






























Interactive Weather Map New forecast layout! Learn more

10-Day Weather Forecast

Advertisements
Track Severe Weather on mobile